Time;durP1;ratioP1;P1;durP2;ratioP2;P2;SDS_P1;SDS_P2;PMS_P1;PMS_P2;Temp;Humidity;BMP_temperature;BMP_pressure;BME280_temperature;BME280_humidity;BME280_pressure;Samples;Min_cycle;Max_cycle;Signal;HPM_P1;HPM_P2
2022/12/11 00:01:28;;;;;;;25.95;18.52;;;;;;;3.59;67.18;101039.66;5006557;28;20113;-66
2022/12/11 00:03:53;;;;;;;19.35;15.95;;;;;;;3.61;67.36;101048.31;5025329;28;20116;-69
2022/12/11 00:06:21;;;;;;;26.85;19.23;;;;;;;3.62;67.03;101046.47;5006007;28;20459;-69
2022/12/11 00:08:49;;;;;;;20.30;15.40;;;;;;;3.62;67.31;101038.47;5005964;28;20030;-66
2022/12/11 00:11:15;;;;;;;40.42;19.25;;;;;;;3.61;66.99;101034.97;5013553;28;20026;-67
2022/12/11 00:13:41;;;;;;;16.95;14.82;;;;;;;3.61;66.99;101034.16;5012982;28;20084;-68
2022/12/11 00:16:08;;;;;;;25.17;16.08;;;;;;;3.62;67.51;101043.81;5009716;28;20061;-67
2022/12/11 00:18:34;;;;;;;17.95;16.10;;;;;;;3.62;67.11;101039.28;5009705;28;20130;-67
2022/12/11 00:21:04;;;;;;;20.90;16.65;;;;;;;3.62;66.99;101041.97;5013616;28;20034;-67
2022/12/11 00:23:30;;;;;;;30.83;18.55;;;;;;;3.62;67.49;101033.94;5013833;28;20084;-68
2022/12/11 00:25:56;;;;;;;21.58;16.20;;;;;;;3.62;67.33;101039.28;5008585;28;20919;-67
2022/12/11 00:28:21;;;;;;;20.17;16.83;;;;;;;3.64;67.23;101044.44;5008103;28;20049;-68
2022/12/11 00:30:47;;;;;;;18.25;16.20;;;;;;;3.63;67.42;101038.28;5011760;28;20112;-68
2022/12/11 00:33:14;;;;;;;21.45;16.20;;;;;;;3.63;67.30;101030.28;5012120;28;20133;-69
2022/12/11 00:35:41;;;;;;;19.10;16.23;;;;;;;3.63;67.47;101040.13;5027197;28;20132;-66
2022/12/11 00:38:07;;;;;;;25.30;17.08;;;;;;;3.63;66.98;101037.47;5009059;28;20041;-71
2022/12/11 00:40:34;;;;;;;19.65;16.95;;;;;;;3.63;67.33;101034.78;5009521;28;20037;-69
2022/12/11 00:42:59;;;;;;;23.00;18.10;;;;;;;3.63;67.28;101030.28;5011937;28;20068;-69
2022/12/11 00:45:25;;;;;;;30.90;16.88;;;;;;;3.63;67.51;101024.94;5009141;28;20053;-66
2022/12/11 00:47:50;;;;;;;18.50;16.30;;;;;;;3.64;66.98;101031.09;5008627;28;20064;-68
2022/12/11 00:50:15;;;;;;;18.95;16.00;;;;;;;3.64;67.13;101028.41;5010520;28;20049;-67
2022/12/11 00:52:41;;;;;;;16.38;14.73;;;;;;;3.64;67.42;101031.09;5009457;28;20042;-67
2022/12/11 00:55:06;;;;;;;21.75;16.05;;;;;;;3.64;67.11;101034.59;5012471;28;20042;-67
2022/12/11 00:57:31;;;;;;;20.48;16.60;;;;;;;3.64;67.22;101039.94;5009187;28;20045;-66
2022/12/11 00:59:57;;;;;;;20.20;14.68;;;;;;;3.65;67.16;101033.59;5011965;28;20441;-67
2022/12/11 01:02:22;;;;;;;19.00;17.10;;;;;;;3.64;67.29;101037.25;5008708;28;20381;-69
2022/12/11 01:04:47;;;;;;;14.50;13.35;;;;;;;3.65;67.42;101038.94;5010317;28;20069;-69
2022/12/11 01:07:13;;;;;;;17.35;15.52;;;;;;;3.64;67.34;101031.91;5012289;28;20136;-69
2022/12/11 01:12:22;;;;;;;29.92;19.38;;;;;;;3.64;67.49;101029.25;5001305;28;20061;-67
2022/12/11 01:14:48;;;;;;;25.92;18.63;;;;;;;3.64;67.03;101036.44;5005469;28;20042;-68
2022/12/11 01:17:13;;;;;;;16.38;14.02;;;;;;;3.64;67.37;101036.44;5010783;28;20062;-69
2022/12/11 01:19:38;;;;;;;23.52;16.75;;;;;;;3.63;67.30;101040.97;5015174;28;20836;-67
2022/12/11 01:22:04;;;;;;;18.98;17.02;;;;;;;3.64;67.29;101034.59;5014920;28;20038;-69
2022/12/11 01:24:29;;;;;;;18.98;16.95;;;;;;;3.64;67.09;101034.59;5021311;28;20501;-66
2022/12/11 01:26:54;;;;;;;23.95;16.83;;;;;;;3.65;67.46;101038.94;5009692;28;20069;-68
2022/12/11 01:29:20;;;;;;;22.67;14.50;;;;;;;3.65;67.44;101035.41;5011517;28;20057;-66
2022/12/11 01:31:45;;;;;;;18.50;15.20;;;;;;;3.66;67.46;101037.06;5012824;28;20120;-69
2022/12/11 01:34:11;;;;;;;27.65;16.02;;;;;;;3.65;67.28;101030.91;5013247;28;20030;-66
2022/12/11 01:36:36;;;;;;;17.13;15.32;;;;;;;3.65;67.07;101028.25;5012733;28;20046;-66
2022/12/11 01:39:02;;;;;;;18.80;15.13;;;;;;;3.66;67.47;101021.88;5010553;28;20046;-66
2022/12/11 01:41:27;;;;;;;16.83;15.07;;;;;;;3.65;67.54;101022.91;5012103;28;20041;-66
2022/12/11 01:43:56;;;;;;;12.73;11.90;;;;;;;3.66;67.54;101021.06;5012688;28;20038;-68
2022/12/11 01:46:22;;;;;;;18.13;15.85;;;;;;;3.67;67.54;101014.69;5012997;28;20033;-69
2022/12/11 01:48:48;;;;;;;17.45;15.80;;;;;;;3.68;67.51;101021.69;5013402;28;20038;-66
2022/12/11 01:51:13;;;;;;;18.77;15.15;;;;;;;3.68;67.58;101021.69;5010992;28;20042;-68
2022/12/11 01:53:47;;;;;;;19.80;16.42;;;;;;;3.67;67.26;101015.50;5011961;28;20484;-67
2022/12/11 01:56:13;;;;;;;13.98;12.75;;;;;;;3.68;67.43;101027.03;5012553;28;20026;-69
2022/12/11 01:58:45;;;;;;;17.50;15.52;;;;;;;3.68;67.49;101022.50;5006307;28;20193;-67
2022/12/11 02:01:26;;;;;;;17.05;15.00;;;;;;;3.69;67.24;101018.00;5004091;28;20446;-66
2022/12/11 02:03:54;;;;;;;19.15;16.30;;;;;;;3.69;67.30;101020.66;5012515;28;20034;-68
2022/12/11 02:06:49;;;;;;;14.93;13.38;;;;;;;3.69;67.53;101015.31;5012364;28;20034;-71
2022/12/11 02:09:23;;;;;;;12.02;11.23;;;;;;;3.69;67.49;101020.66;5007880;28;20022;-69
2022/12/11 02:12:00;;;;;;;10.40;9.80;;;;;;;3.69;67.88;101024.16;5011047;28;20104;-67
2022/12/11 02:14:42;;;;;;;14.98;13.77;;;;;;;3.69;67.59;101029.50;5011706;28;20390;-66
2022/12/11 02:17:18;;;;;;;15.73;13.07;;;;;;;3.69;67.53;101026.81;5026429;28;20078;-66
2022/12/11 02:19:47;;;;;;;16.10;14.43;;;;;;;3.71;67.59;101028.50;5010923;28;20116;-66
2022/12/11 02:22:27;;;;;;;15.02;13.52;;;;;;;3.71;67.60;101028.50;5012850;28;20355;-67
2022/12/11 02:25:11;;;;;;;14.70;13.65;;;;;;;3.70;67.21;101024.97;5011877;28;20037;-67
2022/12/11 02:28:20;;;;;;;14.40;13.30;;;;;;;3.71;67.30;101028.50;5018436;28;20143;-67
2022/12/11 02:30:59;;;;;;;16.75;14.30;;;;;;;3.71;67.24;101021.31;5007646;28;20037;-67
2022/12/11 02:33:28;;;;;;;;;;;;;;;3.71;67.37;101023.16;5005544;28;20053;-70
2022/12/11 02:35:55;;;;;;;15.23;13.80;;;;;;;3.69;67.52;101020.66;5005894;28;19913;-66
2022/12/11 02:38:29;;;;;;;18.08;15.38;;;;;;;3.70;67.50;101016.97;5011563;28;20119;-67
2022/12/11 02:40:56;;;;;;;13.40;12.30;;;;;;;3.70;67.32;101022.31;5011559;28;20032;-67
2022/12/11 02:43:24;;;;;;;14.43;13.27;;;;;;;3.71;67.49;101015.97;5009762;28;20034;-68
2022/12/11 02:45:50;;;;;;;16.20;14.60;;;;;;;3.72;67.57;101016.78;5010410;28;20038;-68
2022/12/11 02:48:18;;;;;;;13.43;12.52;;;;;;;3.71;67.79;101010.63;5015593;28;20065;-67
2022/12/11 02:50:47;;;;;;;18.45;16.38;;;;;;;3.72;67.62;101012.25;5010966;28;20095;-68
2022/12/11 02:53:20;;;;;;;;;;;;;;;3.72;67.46;101012.25;5010797;28;20029;-68
2022/12/11 02:55:51;;;;;;;12.85;11.82;;;;;;;3.72;67.51;101011.44;5010034;28;20271;-68
2022/12/11 02:58:21;;;;;;;15.63;14.18;;;;;;;3.72;67.42;101011.44;5016702;28;20477;-68
2022/12/11 03:00:47;;;;;;;14.95;13.55;;;;;;;3.72;67.72;101012.25;5017364;28;20061;-68
2022/12/11 03:03:13;;;;;;;13.55;12.52;;;;;;;3.73;67.66;101008.59;5010085;28;20127;-68
2022/12/11 03:05:39;;;;;;;17.70;15.68;;;;;;;3.74;67.46;101006.75;5005602;28;20501;-68
2022/12/11 03:08:05;;;;;;;14.85;13.68;;;;;;;3.74;67.64;100998.72;5012146;28;20065;-68
2022/12/11 03:10:30;;;;;;;15.13;13.95;;;;;;;3.74;67.63;100999.53;5030022;28;20499;-68
2022/12/11 03:12:57;;;;;;;11.85;11.02;;;;;;;3.75;67.49;100995.84;5012469;28;20398;-68
2022/12/11 03:15:45;;;;;;;16.38;14.98;;;;;;;3.74;67.72;100991.53;5008836;28;20406;-68
2022/12/11 03:18:38;;;;;;;15.20;13.93;;;;;;;3.75;67.51;100993.16;5009445;28;20237;-70
2022/12/11 03:21:30;;;;;;;15.68;14.18;;;;;;;3.76;67.61;100986.00;4995407;28;20516;-68
2022/12/11 03:24:08;;;;;;;14.40;13.15;;;;;;;3.75;67.61;100985.16;5020343;28;20478;-72
2022/12/11 03:26:41;;;;;;;16.60;15.10;;;;;;;3.76;67.59;100992.16;5013142;28;20034;-74
2022/12/11 03:29:18;;;;;;;14.98;13.43;;;;;;;3.75;67.61;100985.16;5013489;28;20034;-75
2022/12/11 03:31:51;;;;;;;18.50;16.27;;;;;;;3.77;67.83;100993.00;5013698;28;20072;-73
2022/12/11 03:34:27;;;;;;;13.77;12.65;;;;;;;3.76;67.54;100986.81;5013028;28;20445;-73
2022/12/11 03:36:56;;;;;;;16.90;14.75;;;;;;;3.76;67.26;100994.84;5011948;28;20367;-73
2022/12/11 03:39:28;;;;;;;12.48;11.65;;;;;;;3.77;67.69;100991.13;5013079;28;20057;-73
2022/12/11 03:41:54;;;;;;;15.77;14.30;;;;;;;3.77;67.38;100990.31;5015233;28;20037;-73
2022/12/11 03:44:22;;;;;;;14.52;13.32;;;;;;;3.78;67.53;100984.78;5017206;28;20501;-75
2022/12/11 03:46:49;;;;;;;16.98;15.52;;;;;;;3.78;67.47;100978.59;5017275;28;20462;-73
2022/12/11 03:49:22;;;;;;;15.73;14.40;;;;;;;3.78;67.66;100971.44;5017365;28;20045;-73
2022/12/11 03:51:50;;;;;;;18.15;16.33;;;;;;;3.79;67.39;100974.94;5017013;28;20030;-74
2022/12/11 03:54:16;;;;;;;13.73;12.65;;;;;;;3.80;67.39;100976.56;5017230;28;20100;-73
2022/12/11 03:56:44;;;;;;;18.10;15.60;;;;;;;3.79;67.50;100973.06;5017617;28;20100;-73
2022/12/11 03:59:10;;;;;;;14.07;13.00;;;;;;;3.79;67.64;100973.06;5016851;28;20033;-73
2022/12/11 04:01:35;;;;;;;13.27;12.40;;;;;;;3.79;67.53;100973.06;5015520;28;20026;-73
2022/12/11 04:04:01;;;;;;;15.45;14.10;;;;;;;3.80;67.49;100972.03;5015629;28;20026;-73
2022/12/11 04:06:26;;;;;;;14.02;12.88;;;;;;;3.79;67.56;100967.72;5017236;28;20038;-72
2022/12/11 04:08:51;;;;;;;13.32;12.13;;;;;;;3.79;67.39;100965.06;5017145;28;20045;-72
2022/12/11 04:11:35;;;;;;;13.98;13.18;;;;;;;3.79;67.33;100965.06;5016407;28;20084;-73
2022/12/11 04:16:53;;;;;;;15.20;13.85;;;;;;;3.77;67.33;100958.25;5016294;28;20120;-72
2022/12/11 04:24:49;;;;;;;14.07;12.80;;;;;;;3.76;67.69;100962.78;5016459;28;20453;-72
2022/12/11 04:27:47;;;;;;;14.13;12.88;;;;;;;3.75;67.61;100969.13;5016382;28;20129;-73
2022/12/11 04:29:59;;;;;;;13.77;12.77;;;;;;;3.76;67.26;100961.97;5015828;28;20556;-71
2022/12/11 04:32:25;;;;;;;18.40;14.80;;;;;;;3.76;67.71;100959.28;5016183;28;20034;-71
2022/12/11 04:34:50;;;;;;;14.23;13.00;;;;;;;3.76;67.41;100957.44;5016142;28;20072;-72
2022/12/11 04:37:16;;;;;;;13.15;12.10;;;;;;;3.77;67.43;100955.59;5015837;28;20033;-73
2022/12/11 04:39:41;;;;;;;13.05;12.13;;;;;;;3.77;67.74;100955.59;5016571;28;20041;-74
2022/12/11 04:42:06;;;;;;;14.23;13.30;;;;;;;3.76;67.53;100954.75;5015176;28;20030;-73
2022/12/11 04:44:33;;;;;;;14.38;13.20;;;;;;;3.76;67.41;100938.72;5016138;28;20029;-73
2022/12/11 04:46:58;;;;;;;16.58;14.82;;;;;;;3.78;67.65;100947.38;5014777;28;20137;-73
2022/12/11 04:49:23;;;;;;;14.85;13.65;;;;;;;3.78;67.58;100946.53;5015708;28;20057;-73
2022/12/11 04:51:49;;;;;;;14.52;13.20;;;;;;;3.78;67.63;100943.88;5014973;28;20046;-73
2022/12/11 04:54:14;;;;;;;14.15;13.05;;;;;;;3.77;67.35;100939.56;5014193;28;20079;-73
2022/12/11 04:56:39;;;;;;;13.38;12.35;;;;;;;3.79;67.62;100943.69;5014523;28;20041;-73
2022/12/11 04:59:04;;;;;;;14.38;13.38;;;;;;;3.78;67.28;100939.38;5015330;28;20030;-72
2022/12/11 05:01:30;;;;;;;15.07;13.73;;;;;;;3.78;67.40;100935.84;5014484;28;20037;-74
2022/12/11 05:03:58;;;;;;;17.55;15.82;;;;;;;3.76;67.40;100936.06;5015358;28;20109;-73
2022/12/11 05:06:23;;;;;;;14.07;12.98;;;;;;;3.79;67.29;100929.50;5014447;28;20109;-73
2022/12/11 05:08:48;;;;;;;15.35;13.55;;;;;;;3.79;67.62;100938.34;5015537;28;20457;-73
2022/12/11 05:11:15;;;;;;;12.95;11.88;;;;;;;3.80;67.39;100928.47;5014635;28;20065;-73
2022/12/11 05:13:41;;;;;;;16.48;15.00;;;;;;;3.80;67.22;100923.13;5015548;28;20034;-74
2022/12/11 05:16:08;;;;;;;13.32;12.43;;;;;;;3.79;67.74;100927.66;5015641;28;20041;-73
2022/12/11 05:18:34;;;;;;;16.67;14.40;;;;;;;3.79;67.36;100930.31;5015391;28;20036;-73
2022/12/11 05:21:01;;;;;;;13.70;12.73;;;;;;;3.80;67.30;100936.50;5015321;28;20112;-73
2022/12/11 05:23:27;;;;;;;16.73;15.25;;;;;;;3.80;67.27;100939.97;5014882;28;20114;-74
2022/12/11 05:25:55;;;;;;;16.30;14.88;;;;;;;3.81;67.46;100932.81;5014129;28;20444;-72
2022/12/11 05:28:22;;;;;;;14.00;12.65;;;;;;;3.81;67.44;100947.00;5014705;28;20026;-73
2022/12/11 05:30:47;;;;;;;21.83;18.83;;;;;;;3.80;67.34;100937.31;5015348;28;20026;-74
2022/12/11 05:33:13;;;;;;;14.38;13.20;;;;;;;3.81;67.29;100930.97;5015218;28;20405;-73
2022/12/11 05:35:38;;;;;;;18.67;15.80;;;;;;;3.81;67.34;100932.81;5015059;28;20412;-73
2022/12/11 05:38:03;;;;;;;17.20;15.35;;;;;;;3.82;67.32;100934.44;5014987;28;20032;-73
2022/12/11 05:40:29;;;;;;;14.80;13.60;;;;;;;3.82;67.40;100945.13;5013862;28;20045;-73
2022/12/11 05:42:54;;;;;;;18.58;16.23;;;;;;;3.81;67.55;100941.66;5013384;28;20030;-73
2022/12/11 05:45:19;;;;;;;14.52;13.13;;;;;;;3.81;67.61;100940.84;5014754;28;20037;-73
2022/12/11 05:47:45;;;;;;;18.52;13.20;;;;;;;3.81;67.45;100941.66;5014315;28;20506;-72
2022/12/11 05:50:10;;;;;;;16.00;14.82;;;;;;;3.83;67.69;100938.75;5013423;28;20034;-73
2022/12/11 05:52:36;;;;;;;13.73;12.52;;;;;;;3.82;67.23;100947.81;5014829;28;20044;-73
2022/12/11 05:55:01;;;;;;;15.50;13.20;;;;;;;3.82;67.70;100943.28;5013434;28;20061;-73
2022/12/11 05:57:26;;;;;;;15.63;14.35;;;;;;;3.82;67.19;100945.97;5014778;28;20152;-74
2022/12/11 05:59:52;;;;;;;17.13;15.23;;;;;;;3.82;67.53;100943.28;5014610;28;20034;-73
2022/12/11 06:02:17;;;;;;;15.35;13.52;;;;;;;3.83;67.41;100946.78;4996959;28;20030;-74
2022/12/11 06:04:42;;;;;;;15.27;13.93;;;;;;;3.83;67.24;100938.75;5015073;28;20030;-74
2022/12/11 06:07:08;;;;;;;15.10;13.63;;;;;;;3.82;67.26;100939.81;4996696;28;20391;-74
2022/12/11 06:09:33;;;;;;;14.23;13.10;;;;;;;3.83;67.50;100930.75;5014748;28;20373;-74
2022/12/11 06:11:58;;;;;;;15.07;13.90;;;;;;;3.82;67.37;100931.78;5014652;28;20030;-73
2022/12/11 06:14:24;;;;;;;13.23;12.07;;;;;;;3.83;67.13;100936.09;5013189;28;20026;-73
2022/12/11 06:16:49;;;;;;;19.98;18.02;;;;;;;3.83;67.68;100933.41;5014435;28;20050;-72
2022/12/11 06:19:17;;;;;;;17.00;15.48;;;;;;;3.83;67.32;100925.41;5014408;28;20033;-73
2022/12/11 06:21:44;;;;;;;16.45;14.57;;;;;;;3.83;67.08;100936.94;5014751;28;20041;-73
2022/12/11 06:24:10;;;;;;;15.10;13.85;;;;;;;3.84;67.30;100927.06;5013998;28;20129;-72
2022/12/11 06:26:35;;;;;;;14.93;13.48;;;;;;;3.83;67.27;100928.06;5014687;28;20038;-75
2022/12/11 06:29:00;;;;;;;16.55;14.48;;;;;;;3.84;67.21;100935.91;5013790;28;20032;-70
2022/12/11 06:31:26;;;;;;;15.05;13.80;;;;;;;3.84;67.56;100935.91;5014624;28;20462;-73
2022/12/11 06:33:51;;;;;;;16.55;15.15;;;;;;;3.85;67.08;100936.72;5013960;28;20077;-74
2022/12/11 06:36:20;;;;;;;14.20;13.10;;;;;;;3.83;67.42;100926.25;5014079;28;20069;-73
2022/12/11 06:38:49;;;;;;;12.98;12.07;;;;;;;3.83;67.41;100922.72;5013950;28;20030;-75
2022/12/11 06:41:15;;;;;;;14.80;13.60;;;;;;;3.82;67.61;100932.59;5013671;28;20060;-73
2022/12/11 06:43:44;;;;;;;13.93;12.20;;;;;;;3.83;67.16;100926.25;5014141;28;20061;-73
2022/12/11 06:46:12;;;;;;;15.95;14.82;;;;;;;3.83;67.16;100920.91;5013819;28;20038;-72
2022/12/11 06:48:39;;;;;;;13.82;12.45;;;;;;;3.83;67.40;100923.59;5012287;28;20025;-72
2022/12/11 06:51:09;;;;;;;18.83;17.00;;;;;;;3.84;67.41;100919.06;5014230;28;20030;-73
2022/12/11 06:53:35;;;;;;;13.88;12.88;;;;;;;3.84;67.44;100927.06;5013865;28;20026;-72
2022/12/11 06:56:05;;;;;;;16.48;14.93;;;;;;;3.84;67.34;100927.06;5012553;28;20045;-72
2022/12/11 06:58:32;;;;;;;15.82;14.60;;;;;;;3.84;67.31;100924.41;5013013;28;20034;-74
2022/12/11 07:00:58;;;;;;;16.17;14.00;;;;;;;3.84;67.44;100924.41;5013685;28;20072;-73
2022/12/11 07:03:23;;;;;;;15.98;14.60;;;;;;;3.84;67.50;100927.06;5013901;28;20115;-74
2022/12/11 07:05:48;;;;;;;16.58;15.02;;;;;;;3.84;67.20;100930.56;5012429;28;20038;-75
2022/12/11 07:08:14;;;;;;;18.35;14.43;;;;;;;3.84;67.52;100935.09;5013621;28;20057;-72
2022/12/11 07:10:40;;;;;;;17.38;15.45;;;;;;;3.84;67.38;100941.25;5028962;28;20029;-72
2022/12/11 07:13:05;;;;;;;16.75;14.48;;;;;;;3.83;67.40;100944.97;5013113;28;20037;-71
2022/12/11 07:15:31;;;;;;;14.75;13.40;;;;;;;3.84;67.09;100943.94;5013018;28;20384;-72
2022/12/11 07:17:56;;;;;;;16.05;14.63;;;;;;;3.85;67.17;100947.41;5028211;28;20054;-71
2022/12/11 07:20:21;;;;;;;15.95;14.55;;;;;;;3.85;67.50;100950.09;5013610;28;20034;-72
2022/12/11 07:22:47;;;;;;;14.75;13.40;;;;;;;3.85;67.55;100950.09;5011918;28;20100;-72
2022/12/11 07:25:13;;;;;;;14.25;12.80;;;;;;;3.85;67.24;100950.91;5012482;28;20474;-72
2022/12/11 07:27:40;;;;;;;14.50;13.40;;;;;;;3.86;67.40;100949.09;5013349;28;20034;-72
2022/12/11 07:30:06;;;;;;;16.13;14.43;;;;;;;3.85;67.43;100952.75;5013148;28;20107;-73
2022/12/11 07:32:31;;;;;;;15.80;14.23;;;;;;;3.84;67.39;100949.28;5011984;28;20041;-74
2022/12/11 07:34:57;;;;;;;17.45;15.60;;;;;;;3.85;67.36;100956.25;5012422;28;20030;-72
2022/12/11 07:37:22;;;;;;;15.40;13.93;;;;;;;3.86;67.15;100952.59;5012910;28;20041;-71
2022/12/11 07:39:47;;;;;;;15.25;13.88;;;;;;;3.86;67.44;100944.56;5012575;28;20094;-72
2022/12/11 07:42:13;;;;;;;12.85;12.02;;;;;;;3.87;67.43;100942.72;5012948;28;20118;-74
2022/12/11 07:44:38;;;;;;;15.00;13.93;;;;;;;3.86;67.67;100952.59;5012985;28;20096;-72
2022/12/11 07:47:04;;;;;;;21.67;16.25;;;;;;;3.86;67.46;100947.25;5013322;28;20092;-73
2022/12/11 07:49:29;;;;;;;16.48;14.90;;;;;;;3.85;67.36;100950.91;5013026;28;20061;-72
2022/12/11 07:51:55;;;;;;;18.35;14.63;;;;;;;3.86;67.41;100955.25;5013254;28;20030;-74
2022/12/11 07:54:20;;;;;;;16.25;14.82;;;;;;;3.86;67.42;100954.44;5013017;28;20141;-72
2022/12/11 07:56:47;;;;;;;14.60;13.57;;;;;;;3.86;67.21;100952.59;5013551;28;20037;-73
2022/12/11 07:59:15;;;;;;;17.73;15.93;;;;;;;3.87;67.32;100948.06;5012745;28;20464;-72
2022/12/11 08:01:44;;;;;;;14.93;13.52;;;;;;;3.87;67.55;100956.06;5013293;28;20033;-72
2022/12/11 08:04:14;;;;;;;17.75;15.90;;;;;;;3.86;67.61;100949.91;5012815;28;20025;-73
2022/12/11 08:06:41;;;;;;;22.80;14.85;;;;;;;3.86;67.48;100949.91;5029061;28;20090;-72
2022/12/11 08:09:08;;;;;;;19.05;17.25;;;;;;;3.86;67.11;100952.59;5012922;28;20030;-72
2022/12/11 08:11:34;;;;;;;15.00;13.65;;;;;;;3.86;67.22;100946.41;5012727;28;20446;-73
2022/12/11 08:14:00;;;;;;;16.75;15.13;;;;;;;3.87;67.17;100942.72;5012843;28;20112;-73
2022/12/11 08:16:25;;;;;;;14.85;13.80;;;;;;;3.87;67.32;100951.56;5011513;28;20426;-74
2022/12/11 08:18:51;;;;;;;15.05;13.77;;;;;;;3.87;67.46;100945.38;5012928;28;20116;-72
2022/12/11 08:21:21;;;;;;;12.63;11.75;;;;;;;3.87;67.42;100948.06;5013490;28;20053;-74
2022/12/11 08:23:48;;;;;;;13.98;12.77;;;;;;;3.87;67.47;100946.22;5012557;28;20056;-73
2022/12/11 08:26:16;;;;;;;14.75;13.25;;;;;;;3.87;67.58;100951.56;5011077;28;20044;-74
2022/12/11 08:28:42;;;;;;;15.95;14.35;;;;;;;3.88;67.34;100953.22;5014606;28;20088;-73
2022/12/11 08:31:09;;;;;;;15.10;12.32;;;;;;;3.87;67.16;100946.22;5016186;28;20037;-73
2022/12/11 08:33:36;;;;;;;12.68;11.68;;;;;;;3.89;67.09;100956.72;5032133;28;20036;-73
2022/12/11 08:36:06;;;;;;;16.63;15.00;;;;;;;3.88;67.44;100957.72;5015715;28;20033;-73
2022/12/11 08:38:32;;;;;;;14.40;13.13;;;;;;;3.88;67.50;100955.03;5031692;28;20040;-73
2022/12/11 08:41:11;;;;;;;17.52;15.65;;;;;;;3.89;67.37;100959.38;5016124;28;20539;-76
2022/12/11 08:43:37;;;;;;;20.85;14.43;;;;;;;3.88;67.41;100953.22;5016551;28;20030;-73
2022/12/11 08:46:03;;;;;;;17.55;15.52;;;;;;;3.88;67.30;100945.22;5015682;28;20064;-74
2022/12/11 08:48:28;;;;;;;15.40;13.95;;;;;;;3.89;67.19;100948.69;5015898;28;20026;-72
2022/12/11 08:50:53;;;;;;;14.85;13.70;;;;;;;3.89;67.10;100954.88;5014779;28;20076;-72
2022/12/11 08:53:19;;;;;;;18.40;14.07;;;;;;;3.88;67.09;100941.69;5014886;28;20108;-72
2022/12/11 08:55:44;;;;;;;15.77;14.23;;;;;;;3.89;67.18;100941.50;4998682;28;20359;-73
2022/12/11 08:58:09;;;;;;;16.80;15.38;;;;;;;3.89;67.45;100940.69;5031118;28;20038;-72
2022/12/11 09:00:35;;;;;;;17.75;14.55;;;;;;;3.89;67.47;100943.34;5015782;28;20084;-73
2022/12/11 09:03:01;;;;;;;19.77;14.70;;;;;;;3.89;67.11;100933.47;5016199;28;20037;-74
2022/12/11 09:05:26;;;;;;;14.00;12.57;;;;;;;3.90;67.20;100934.31;5016152;28;20032;-72
2022/12/11 09:07:51;;;;;;;16.48;14.20;;;;;;;3.91;67.40;100938.66;5015781;28;20025;-74
2022/12/11 09:10:17;;;;;;;18.15;14.18;;;;;;;3.90;67.63;100947.66;5015554;28;20034;-73
2022/12/11 09:12:42;;;;;;;15.30;14.07;;;;;;;3.90;67.44;100951.16;5015560;28;20095;-74
2022/12/11 09:15:08;;;;;;;16.98;15.65;;;;;;;3.90;67.54;100951.16;4998633;28;20065;-74
2022/12/11 09:17:34;;;;;;;15.70;14.23;;;;;;;3.92;67.33;100950.16;5013690;28;20057;-74
2022/12/11 09:19:59;;;;;;;15.98;13.02;;;;;;;3.91;67.26;100941.31;5014143;28;20038;-73
2022/12/11 09:22:25;;;;;;;13.73;12.50;;;;;;;3.92;67.58;100947.50;5015473;28;20038;-74
2022/12/11 09:24:50;;;;;;;15.32;13.93;;;;;;;3.92;67.03;100947.50;5015108;28;20052;-72
2022/12/11 09:27:15;;;;;;;16.40;14.68;;;;;;;3.92;67.28;100947.50;5030375;28;20038;-74
2022/12/11 09:29:41;;;;;;;21.33;13.75;;;;;;;3.93;67.24;100941.97;5015658;28;20041;-75
2022/12/11 09:32:06;;;;;;;17.30;15.68;;;;;;;3.92;67.36;100937.63;5014022;28;20427;-72
2022/12/11 09:34:32;;;;;;;17.05;14.50;;;;;;;3.92;67.17;100945.63;4997509;28;20459;-74
2022/12/11 09:36:58;;;;;;;13.35;12.35;;;;;;;3.92;67.21;100945.63;5030226;28;20033;-74
2022/12/11 09:39:23;;;;;;;13.70;12.52;;;;;;;3.94;67.13;100945.44;5014871;28;20041;-72
2022/12/11 09:42:18;;;;;;;16.92;14.60;;;;;;;3.92;67.42;100939.47;5014974;28;20068;-73
2022/12/11 09:44:52;;;;;;;17.70;15.77;;;;;;;3.94;67.15;100940.09;5013196;28;20041;-74
2022/12/11 09:47:49;;;;;;;17.35;15.77;;;;;;;3.93;67.09;100936.63;5014844;28;20022;-75
2022/12/11 09:50:24;;;;;;;16.95;15.20;;;;;;;3.93;67.39;100936.63;5014117;28;20065;-73
2022/12/11 09:52:59;;;;;;;17.40;15.25;;;;;;;3.93;67.17;100936.63;5014636;28;20428;-74
2022/12/11 09:55:34;;;;;;;16.42;14.75;;;;;;;3.93;67.41;100930.41;5014994;28;20045;-73
2022/12/11 09:58:34;;;;;;;15.32;13.85;;;;;;;3.94;67.13;100929.41;5014770;28;20060;-74
2022/12/11 10:01:35;;;;;;;14.93;13.52;;;;;;;3.93;67.29;100930.41;5014970;28;20486;-75
2022/12/11 10:04:17;;;;;;;22.42;16.33;;;;;;;3.92;67.13;100929.59;5014673;28;20026;-73
2022/12/11 10:06:47;;;;;;;22.70;15.73;;;;;;;3.91;67.09;100925.28;5015025;28;20571;-72
2022/12/11 10:09:28;;;;;;;18.85;16.52;;;;;;;3.93;67.21;100925.91;5014450;28;20413;-73
2022/12/11 10:12:11;;;;;;;18.58;16.35;;;;;;;3.93;67.49;100931.28;5014110;28;20034;-72
2022/12/11 10:14:57;;;;;;;17.85;15.98;;;;;;;3.93;67.21;100931.28;5029335;28;20029;-73
2022/12/11 10:17:30;;;;;;;18.92;16.88;;;;;;;3.94;67.51;100926.75;5014031;28;20414;-75
2022/12/11 10:20:04;;;;;;;17.13;15.52;;;;;;;3.94;67.56;100924.06;5014099;28;20477;-74
2022/12/11 10:22:32;;;;;;;15.07;13.65;;;;;;;3.95;67.29;100925.72;5014133;28;20034;-74
2022/12/11 10:24:59;;;;;;;19.95;16.63;;;;;;;3.94;67.28;100919.53;5014390;28;20091;-75
2022/12/11 10:27:30;;;;;;;16.70;15.05;;;;;;;3.95;67.15;100921.19;5012625;28;20083;-73
2022/12/11 10:30:14;;;;;;;16.50;15.05;;;;;;;3.96;67.45;100914.84;5013875;28;20038;-76
2022/12/11 10:33:05;;;;;;;18.80;16.77;;;;;;;3.96;67.45;100906.81;5013820;28;20030;-72
2022/12/11 10:35:38;;;;;;;14.27;13.10;;;;;;;3.95;67.46;100910.50;5012445;28;20124;-73
2022/12/11 10:38:09;;;;;;;18.00;15.40;;;;;;;3.96;67.18;100914.03;5013867;28;20064;-73
2022/12/11 10:40:35;;;;;;;20.58;18.05;;;;;;;3.96;67.32;100912.16;5013365;28;20026;-73
2022/12/11 10:43:01;;;;;;;17.58;14.38;;;;;;;3.96;67.45;100908.66;4996228;28;20088;-75
2022/12/11 10:45:26;;;;;;;20.48;17.45;;;;;;;3.97;67.27;100921.81;5012272;28;20030;-73
2022/12/11 10:48:10;;;;;;;16.92;15.23;;;;;;;3.99;67.40;100906.41;5014065;28;20371;-74
2022/12/11 10:50:36;;;;;;;21.08;16.95;;;;;;;3.98;67.54;100903.94;5012855;28;20022;-74
2022/12/11 10:53:02;;;;;;;23.15;16.52;;;;;;;3.98;67.38;100906.59;5013537;28;20030;-74
2022/12/11 10:55:42;;;;;;;19.42;15.48;;;;;;;3.99;67.58;100909.09;5012141;28;20037;-73
2022/12/11 10:58:17;;;;;;;12.98;12.07;;;;;;;3.99;67.15;100909.09;5013570;28;20026;-72
2022/12/11 11:00:43;;;;;;;17.65;14.98;;;;;;;4.00;67.29;100904.56;5013990;28;20029;-75
2022/12/11 11:03:24;;;;;;;19.92;17.83;;;;;;;4.00;67.36;100902.72;5012081;28;20030;-76
2022/12/11 11:06:06;;;;;;;14.75;13.60;;;;;;;4.01;67.43;100901.72;5013209;28;20030;-73
2022/12/11 11:08:43;;;;;;;14.10;12.98;;;;;;;4.01;67.15;100898.22;5013016;28;20038;-72
2022/12/11 11:11:35;;;;;;;20.60;16.98;;;;;;;4.01;67.44;100899.03;5013708;28;20022;-73
2022/12/11 11:14:16;;;;;;;16.65;14.88;;;;;;;4.02;67.48;100903.34;5013016;28;20026;-73
2022/12/11 11:16:47;;;;;;;18.08;15.60;;;;;;;4.02;67.15;100899.84;5013257;28;20088;-74
2022/12/11 11:19:32;;;;;;;22.20;16.05;;;;;;;4.02;67.33;100898.00;5028539;28;20116;-76
2022/12/11 11:22:06;;;;;;;15.60;14.43;;;;;;;4.03;67.11;100894.34;5013410;28;20161;-74
2022/12/11 11:24:37;;;;;;;29.45;19.67;;;;;;;4.03;67.45;100888.97;5012589;28;20044;-76
2022/12/11 11:27:30;;;;;;;17.63;15.82;;;;;;;4.04;67.37;100893.28;5012740;28;20026;-74
2022/12/11 11:30:00;;;;;;;21.67;18.27;;;;;;;4.04;67.14;100893.28;5012046;28;20045;-74
2022/12/11 11:32:32;;;;;;;27.48;18.00;;;;;;;4.05;67.34;100886.09;5011521;28;20033;-72
2022/12/11 11:35:12;;;;;;;27.20;18.45;;;;;;;4.06;67.03;100885.09;5012740;28;20534;-73
2022/12/11 11:37:45;;;;;;;21.88;18.67;;;;;;;4.06;66.94;100891.25;5012528;28;20088;-74